createdAt,value
2019-01-06T00:05:40.177Z,7.00
2019-01-06T00:12:10.652Z,6.98
2019-01-06T00:18:41.222Z,6.98
2019-01-06T00:25:16.197Z,6.98
2019-01-06T00:31:33.064Z,6.95
2019-01-06T00:37:56.760Z,6.90
2019-01-06T00:44:27.418Z,6.91
2019-01-06T00:50:50.823Z,6.87
2019-01-06T00:57:31.198Z,6.77
2019-01-06T01:04:05.545Z,6.84
2019-01-06T01:10:27.031Z,6.79
2019-01-06T01:16:55.470Z,6.76
2019-01-06T01:23:18.827Z,6.80
2019-01-06T01:29:42.325Z,6.80
2019-01-06T01:36:07.614Z,6.77
2019-01-06T01:42:30.021Z,6.73
2019-01-06T01:49:12.918Z,6.77
2019-01-06T01:55:43.381Z,6.74
2019-01-06T02:02:14.245Z,6.68
2019-01-06T02:08:31.692Z,6.71
2019-01-06T02:14:56.371Z,6.68
2019-01-06T02:21:33.401Z,6.68
2019-01-06T02:27:58.366Z,6.68
2019-01-06T02:34:25.799Z,6.66
2019-01-06T02:40:53.730Z,6.66
2019-01-06T02:47:15.675Z,6.66
2019-01-06T02:53:43.141Z,6.66
2019-01-06T03:00:23.228Z,6.71
2019-01-06T03:06:46.828Z,6.68
2019-01-06T03:13:10.857Z,6.73
2019-01-06T03:19:36.098Z,6.63
2019-01-06T03:26:03.461Z,6.61
2019-01-06T03:32:40.387Z,6.57
2019-01-06T03:39:03.608Z,6.59
2019-01-06T03:45:31.081Z,6.54
2019-01-06T03:51:55.762Z,6.63
2019-01-06T03:58:12.694Z,6.66
2019-01-06T04:04:37.636Z,6.68
2019-01-06T04:11:01.183Z,6.67
2019-01-06T04:17:25.759Z,6.64
2019-01-06T04:23:59.258Z,6.67
2019-01-06T04:30:42.418Z,6.73
2019-01-06T04:37:02.429Z,6.72
2019-01-06T04:43:40.121Z,6.72
2019-01-06T04:50:07.550Z,6.73
2019-01-06T04:56:31.281Z,6.71
2019-01-06T05:02:55.827Z,6.71
2019-01-06T05:09:19.548Z,6.70
2019-01-06T05:15:41.183Z,6.58
2019-01-06T05:22:20.883Z,6.62
2019-01-06T05:29:01.102Z,6.58
2019-01-06T05:35:24.651Z,6.56
2019-01-06T05:41:48.418Z,6.61
2019-01-06T05:48:04.082Z,6.64
2019-01-06T05:54:29.030Z,6.70
2019-01-06T06:01:09.452Z,6.70
2019-01-06T06:07:43.091Z,6.71
2019-01-06T06:14:06.990Z,6.70
2019-01-06T06:20:46.706Z,6.63
2019-01-06T06:27:10.451Z,6.68
2019-01-06T06:33:38.001Z,6.75
2019-01-06T06:40:08.830Z,6.76
2019-01-06T06:46:36.653Z,6.73
2019-01-06T06:53:16.460Z,6.71
2019-01-06T06:59:50.109Z,6.65
2019-01-06T07:06:11.202Z,6.67
2019-01-06T07:12:43.042Z,6.62
2019-01-06T07:19:06.493Z,6.55
2019-01-06T07:25:32.366Z,6.60
2019-01-06T07:32:06.512Z,6.60
2019-01-06T07:38:30.715Z,6.57
2019-01-06T07:45:04.542Z,6.54
2019-01-06T07:51:27.871Z,6.55
2019-01-06T07:58:01.489Z,6.54
2019-01-06T08:04:26.221Z,6.59
2019-01-06T08:10:56.841Z,6.66
2019-01-06T08:17:21.426Z,6.63
2019-01-06T08:24:01.423Z,6.62
2019-01-06T08:30:29.808Z,6.64
2019-01-06T08:36:53.508Z,6.64
2019-01-06T08:43:33.331Z,6.63
2019-01-06T08:50:01.326Z,6.63
2019-01-06T08:56:37.395Z,6.64
2019-01-06T09:03:14.321Z,6.60
2019-01-06T09:09:45.956Z,6.68
2019-01-06T09:16:09.473Z,6.69
2019-01-06T09:22:32.781Z,6.69
2019-01-06T09:29:03.694Z,6.75
2019-01-06T09:35:28.912Z,6.83
2019-01-06T09:41:52.484Z,6.87
2019-01-06T09:48:26.026Z,6.86
2019-01-06T09:54:48.526Z,6.85
2019-01-06T10:01:13.100Z,6.91
2019-01-06T10:07:33.639Z,7.00
2019-01-06T10:14:10.691Z,6.98
2019-01-06T10:20:45.338Z,7.04
2019-01-06T10:27:15.876Z,7.02
2019-01-06T10:33:39.594Z,7.23
2019-01-06T10:40:10.434Z,7.12
2019-01-06T10:46:53.257Z,7.18
2019-01-06T10:53:25.184Z,7.13
2019-01-06T10:59:52.886Z,7.15
2019-01-06T11:06:16.957Z,7.15
2019-01-06T11:12:56.052Z,7.16
2019-01-06T11:19:33.038Z,7.21
2019-01-06T11:25:48.711Z,7.17
2019-01-06T11:32:12.330Z,7.23
2019-01-06T11:38:43.139Z,7.17
2019-01-06T11:45:10.731Z,7.31
2019-01-06T11:51:41.399Z,7.36
2019-01-06T11:58:15.173Z,7.36
2019-01-06T12:04:58.364Z,7.38
2019-01-06T12:11:41.629Z,7.44
2019-01-06T12:18:04.920Z,7.50
2019-01-06T12:24:41.640Z,7.57
2019-01-06T12:31:09.308Z,7.63
2019-01-06T12:37:34.166Z,7.60
2019-01-06T12:43:58.926Z,7.64
2019-01-06T12:50:27.079Z,7.68
2019-01-06T12:56:50.319Z,7.66
2019-01-06T13:03:13.638Z,7.67
2019-01-06T13:09:50.570Z,7.73
2019-01-06T13:16:24.650Z,7.59
2019-01-06T13:22:57.786Z,7.68
2019-01-06T13:29:22.637Z,7.68
2019-01-06T13:35:50.338Z,7.68
2019-01-06T13:42:13.742Z,7.76
2019-01-06T13:48:37.169Z,7.76
2019-01-06T13:55:01.842Z,7.76
2019-01-06T14:01:32.637Z,7.80
2019-01-06T14:07:55.956Z,7.84
2019-01-06T14:14:19.771Z,7.93
2019-01-06T14:20:43.812Z,7.99
2019-01-06T14:27:07.424Z,7.93
2019-01-06T14:33:43.707Z,8.00
2019-01-06T14:40:08.248Z,8.04
2019-01-06T14:46:31.665Z,7.98
2019-01-06T14:53:10.128Z,8.05
2019-01-06T14:59:37.666Z,8.06
2019-01-06T15:06:02.615Z,8.10
2019-01-06T15:12:36.296Z,8.06
2019-01-06T15:18:58.982Z,7.98
2019-01-06T15:25:42.437Z,8.00
2019-01-06T15:32:22.571Z,7.89
2019-01-06T15:38:53.529Z,7.94
2019-01-06T15:45:22.766Z,7.96
2019-01-06T15:51:59.374Z,7.94
2019-01-06T15:58:22.639Z,8.01
2019-01-06T16:04:56.358Z,8.01
2019-01-06T16:11:27.233Z,7.99
2019-01-06T16:17:57.562Z,7.93
2019-01-06T16:24:20.602Z,7.88
2019-01-06T16:30:41.515Z,7.83
2019-01-06T16:37:18.725Z,7.84
2019-01-06T16:43:41.705Z,7.87
2019-01-06T16:50:21.595Z,7.92
2019-01-06T16:57:06.776Z,7.87
2019-01-06T17:03:47.255Z,7.87
2019-01-06T17:10:10.865Z,7.92
2019-01-06T17:16:50.960Z,7.96
2019-01-06T17:23:14.159Z,7.98
2019-01-06T17:29:50.954Z,7.94
2019-01-06T17:36:14.598Z,7.80
2019-01-06T17:42:38.602Z,7.71
2019-01-06T17:49:02.263Z,7.75
2019-01-06T17:55:27.134Z,7.76
2019-01-06T18:02:04.389Z,7.70
2019-01-06T18:08:28.051Z,7.72
2019-01-06T18:14:54.991Z,7.68
2019-01-06T18:21:18.753Z,7.63
2019-01-06T18:27:43.914Z,7.62
2019-01-06T18:34:17.558Z,7.62
2019-01-06T18:40:41.845Z,7.61
2019-01-06T18:47:12.651Z,7.54
2019-01-06T18:53:43.648Z,7.48
2019-01-06T19:00:17.659Z,7.50
2019-01-06T19:06:40.831Z,7.43
2019-01-06T19:13:04.524Z,7.51
2019-01-06T19:19:42.482Z,7.46
2019-01-06T19:26:05.461Z,7.48
2019-01-06T19:32:40.546Z,7.48
2019-01-06T19:39:04.053Z,7.33
2019-01-06T19:45:40.890Z,7.36
2019-01-06T19:52:17.644Z,7.37
2019-01-06T19:58:40.468Z,7.34
2019-01-06T20:04:57.989Z,7.24
2019-01-06T20:11:22.648Z,7.26
2019-01-06T20:17:46.100Z,7.26
2019-01-06T20:24:25.909Z,7.30
2019-01-06T20:30:49.231Z,7.30
2019-01-06T20:37:16.918Z,7.31
2019-01-06T20:43:41.533Z,7.27
2019-01-06T20:50:03.169Z,7.30
2019-01-06T20:56:33.113Z,7.28
2019-01-06T21:03:00.928Z,7.22
2019-01-06T21:09:26.527Z,7.27
2019-01-06T21:15:54.520Z,7.31
2019-01-06T21:22:37.609Z,7.29
2019-01-06T21:29:00.301Z,7.24
2019-01-06T21:35:24.086Z,7.21
2019-01-06T21:41:58.479Z,7.26
2019-01-06T21:48:29.584Z,7.22
2019-01-06T21:54:52.804Z,7.25
2019-01-06T22:01:16.115Z,7.11
2019-01-06T22:07:39.425Z,7.10
2019-01-06T22:14:13.451Z,7.04
2019-01-06T22:20:50.239Z,6.98
2019-01-06T22:27:33.325Z,7.02
2019-01-06T22:33:57.992Z,6.99
2019-01-06T22:40:28.069Z,6.95
2019-01-06T22:46:58.760Z,6.96
2019-01-06T22:53:22.177Z,6.92
2019-01-06T22:59:56.017Z,6.91
2019-01-06T23:06:15.548Z,6.93
2019-01-06T23:12:37.169Z,6.88
2019-01-06T23:19:17.833Z,6.84
2019-01-06T23:25:41.289Z,6.74
2019-01-06T23:32:06.142Z,6.52
2019-01-06T23:38:43.120Z,6.43
2019-01-06T23:45:07.744Z,6.25
2019-01-06T23:51:41.999Z,6.25
2019-01-06T23:58:05.610Z,6.34
